Time;durP1;ratioP1;P1;durP2;ratioP2;P2;SDS_P1;SDS_P2;PMS_P1;PMS_P2;Temp;Humidity;BMP_temperature;BMP_pressure;BME280_temperature;BME280_humidity;BME280_pressure;Samples;Min_cycle;Max_cycle;Signal;HPM_P1;HPM_P2
2022/03/25 00:01:27;;;;;;;37.50;27.57;;;9.70;1.00;10.20;101596.00;;;;5017753;28;20463;-76
2022/03/25 00:03:57;;;;;;;35.37;27.57;;;9.80;1.00;10.20;101595.00;;;;5019663;28;20497;-77
2022/03/25 00:06:28;;;;;;;32.83;25.80;;;9.80;1.00;10.20;101599.00;;;;5012948;28;20450;-77
2022/03/25 00:08:56;;;;;;;32.63;26.50;;;9.80;1.00;10.20;101593.00;;;;5008633;28;20485;-77
2022/03/25 00:11:25;;;;;;;36.37;27.80;;;9.80;1.00;10.20;101590.00;;;;4998985;28;20446;-76
2022/03/25 00:13:53;;;;;;;43.83;28.30;;;9.90;1.00;10.10;101599.00;;;;4998145;28;20521;-76
2022/03/25 00:16:24;;;;;;;34.17;27.23;;;9.80;1.00;10.00;101606.00;;;;4990773;28;20517;-77
2022/03/25 00:18:54;;;;;;;34.63;27.27;;;9.70;1.00;9.90;101598.00;;;;4994779;28;20493;-77
2022/03/25 00:21:22;;;;;;;35.73;26.87;;;9.60;1.00;9.90;101607.00;;;;4992597;28;20513;-77
2022/03/25 00:23:50;;;;;;;32.90;26.80;;;9.60;1.00;10.00;101605.00;;;;4990027;28;21411;-78
2022/03/25 00:26:19;;;;;;;37.73;27.37;;;9.60;1.00;10.10;101607.00;;;;4987059;28;20490;-76
2022/03/25 00:28:48;;;;;;;34.70;26.57;;;9.70;1.00;10.00;101614.00;;;;4988376;28;21186;-76
2022/03/25 00:31:16;;;;;;;33.63;28.37;;;9.70;1.00;10.00;101608.00;;;;4991323;28;20491;-77
2022/03/25 00:33:49;;;;;;;33.90;26.20;;;9.60;1.00;10.00;101605.00;;;;4988129;28;20485;-76
2022/03/25 00:36:18;;;;;;;32.33;27.90;;;9.70;1.00;9.90;101594.00;;;;4986115;28;20453;-76
2022/03/25 00:38:47;;;;;;;34.33;27.50;;;9.60;1.00;9.80;101604.00;;;;4988351;28;20549;-77
2022/03/25 00:41:16;;;;;;;35.40;27.07;;;9.50;1.00;9.90;101602.00;;;;4990253;28;20548;-77
2022/03/25 00:43:46;;;;;;;31.07;26.57;;;9.50;1.00;9.80;101585.00;;;;4984043;28;21447;-77
2022/03/25 00:46:15;;;;;;;36.63;27.63;;;9.50;1.00;9.80;101599.00;;;;4980172;28;20458;-77
2022/03/25 00:48:47;;;;;;;33.90;25.90;;;9.50;1.00;10.00;101593.00;;;;4983468;28;20459;-77
2022/03/25 00:51:18;;;;;;;33.70;26.77;;;9.60;1.00;10.10;101604.00;;;;4991818;28;20812;-77
2022/03/25 00:53:48;;;;;;;37.13;27.73;;;9.70;1.00;10.00;101584.00;;;;4991766;28;20478;-76
2022/03/25 00:56:17;;;;;;;36.50;27.53;;;9.70;1.00;10.00;101603.00;;;;4991729;28;20455;-77
2022/03/25 00:58:45;;;;;;;34.23;27.83;;;9.70;1.00;9.90;101590.00;;;;4985982;28;20458;-76
2022/03/25 01:01:15;;;;;;;35.27;28.57;;;9.70;1.00;9.90;101590.00;;;;4992462;28;20455;-76
2022/03/25 01:03:43;;;;;;;37.13;27.73;;;9.50;1.00;9.80;101590.00;;;;4995964;28;20528;-78
2022/03/25 01:06:13;;;;;;;34.10;28.37;;;9.50;1.00;9.80;101590.00;;;;5000022;28;20969;-78
2022/03/25 01:08:41;;;;;;;36.83;28.43;;;9.50;1.00;9.80;101598.00;;;;4997461;28;20901;-77
2022/03/25 01:11:10;;;;;;;37.47;29.17;;;9.50;1.00;9.70;101584.00;;;;5006058;28;21124;-77
2022/03/25 01:13:38;;;;;;;33.77;26.27;;;9.40;1.00;9.70;101598.00;;;;5004704;28;20499;-76
2022/03/25 01:16:09;;;;;;;32.60;26.10;;;9.40;1.00;9.70;101580.00;;;;5005174;28;20467;-77
2022/03/25 01:18:38;;;;;;;37.00;28.10;;;9.40;1.00;9.80;101577.00;;;;5003009;28;20448;-77
2022/03/25 01:21:07;;;;;;;39.03;28.77;;;9.40;1.00;9.80;101584.00;;;;5012619;28;20446;-78
2022/03/25 01:23:37;;;;;;;33.83;28.03;;;9.50;1.00;9.80;101581.00;;;;5008817;28;20475;-77
2022/03/25 01:26:05;;;;;;;33.93;27.47;;;9.50;1.00;9.90;101587.00;;;;5000088;28;20478;-77
2022/03/25 01:28:34;;;;;;;38.23;28.90;;;9.50;1.00;9.80;101583.00;;;;4999506;28;20549;-78
2022/03/25 01:31:04;;;;;;;32.27;27.40;;;9.50;1.00;9.80;101589.00;;;;5002271;28;20454;-78
2022/03/25 01:33:36;;;;;;;34.87;27.60;;;9.50;1.00;9.80;101590.00;;;;5001515;28;20477;-78
2022/03/25 01:36:06;;;;;;;35.30;27.33;;;9.50;1.00;9.80;101584.00;;;;5005297;28;20443;-77
2022/03/25 01:38:37;;;;;;;34.40;27.93;;;9.50;1.00;9.70;101571.00;;;;5000534;28;20465;-77
2022/03/25 01:41:07;;;;;;;34.83;27.53;;;9.40;1.00;9.70;101578.00;;;;5002095;28;20439;-78
2022/03/25 01:43:36;;;;;;;34.00;28.10;;;9.40;1.00;9.70;101570.00;;;;5002409;28;20465;-77
2022/03/25 01:46:04;;;;;;;34.40;28.10;;;9.30;1.00;9.70;101568.00;;;;5011890;28;20478;-78
2022/03/25 01:48:33;;;;;;;34.90;28.17;;;9.30;1.00;9.70;101573.00;;;;5009871;28;20932;-79
2022/03/25 01:51:03;;;;;;;37.73;27.37;;;9.30;1.00;9.70;101567.00;;;;5010208;28;20471;-78
2022/03/25 01:53:32;;;;;;;33.00;28.73;;;9.60;1.00;9.60;101565.00;;;;5003368;28;20474;-78
2022/03/25 01:56:03;;;;;;;32.57;26.40;;;9.30;1.00;9.60;101574.00;;;;5007655;28;20975;-78
2022/03/25 01:58:33;;;;;;;36.77;29.60;;;9.20;1.00;9.50;101570.00;;;;5017042;28;20518;-78
2022/03/25 02:01:05;;;;;;;33.70;27.60;;;9.20;1.00;9.40;101566.00;;;;5003895;28;20465;-77
2022/03/25 02:03:33;;;;;;;38.83;28.83;;;9.10;1.00;9.50;101574.00;;;;5004339;28;20568;-77
2022/03/25 02:06:01;;;;;;;35.40;28.20;;;9.10;1.00;9.40;101555.00;;;;4992464;28;20585;-77
2022/03/25 02:08:30;;;;;;;35.20;28.50;;;9.10;1.00;9.40;101560.00;;;;4997783;28;20836;-78
2022/03/25 02:10:59;;;;;;;34.10;26.30;;;9.00;1.00;9.30;101563.00;;;;4991729;28;20460;-77
2022/03/25 02:13:29;;;;;;;37.20;29.37;;;9.00;1.00;9.20;101555.00;;;;4991407;28;21386;-78
2022/03/25 02:16:01;;;;;;;34.70;26.83;;;8.90;1.00;9.20;101561.00;;;;4993531;28;20549;-78
2022/03/25 02:18:29;;;;;;;31.70;26.00;;;8.90;1.00;9.20;101555.00;;;;4996707;28;20848;-77
2022/03/25 02:20:59;;;;;;;36.27;27.90;;;8.80;1.00;9.20;101541.00;;;;4997470;28;20442;-78
2022/03/25 02:23:29;;;;;;;33.47;26.43;;;8.80;1.00;9.10;101557.00;;;;5013230;28;20474;-78
2022/03/25 02:25:57;;;;;;;35.47;27.53;;;8.80;1.00;9.20;101555.00;;;;5003064;28;20513;-78
2022/03/25 02:28:26;;;;;;;33.00;25.90;;;8.80;1.00;9.20;101528.00;;;;4990517;28;20457;-76
2022/03/25 02:30:59;;;;;;;34.20;26.97;;;8.80;1.00;9.20;101535.00;;;;4999945;28;20477;-77
2022/03/25 02:33:27;;;;;;;33.70;27.20;;;8.90;1.00;9.10;101559.00;;;;5003097;28;20481;-77
2022/03/25 02:35:55;;;;;;;32.07;25.67;;;8.80;1.00;9.20;101560.00;;;;4990102;28;20465;-76
2022/03/25 02:38:24;;;;;;;33.30;26.53;;;8.80;1.00;9.10;101551.00;;;;4978841;28;20478;-77
2022/03/25 02:40:56;;;;;;;36.27;28.70;;;8.80;1.00;9.10;101547.00;;;;4975748;28;20484;-77
2022/03/25 02:43:29;;;;;;;35.50;27.23;;;8.90;1.00;9.10;101558.00;;;;5011949;28;20496;-77
2022/03/25 02:46:04;;;;;;;32.30;25.70;;;8.80;1.00;9.10;101563.00;;;;5000406;28;20485;-76
2022/03/25 02:48:33;;;;;;;35.70;25.00;;;8.80;1.00;9.10;101558.00;;;;5014471;28;20486;-76
2022/03/25 02:51:02;;;;;;;35.47;26.43;;;8.80;1.00;9.10;101557.00;;;;5006330;28;20485;-77
2022/03/25 02:53:31;;;;;;;34.13;26.57;;;8.80;1.00;9.20;101551.00;;;;4999319;28;20533;-76
2022/03/25 02:56:00;;;;;;;34.53;26.90;;;8.80;1.00;9.30;101558.00;;;;4999911;28;20469;-78
2022/03/25 02:58:28;;;;;;;34.00;26.40;;;8.90;1.00;9.30;101554.00;;;;4988527;28;20465;-77
2022/03/25 03:00:57;;;;;;;41.37;26.03;;;8.90;1.00;9.20;101535.00;;;;5006881;28;20458;-77
2022/03/25 03:03:25;;;;;;;37.17;26.60;;;8.70;1.00;9.20;101544.00;;;;4992100;28;20568;-77
2022/03/25 03:05:54;;;;;;;37.30;26.03;;;8.90;1.00;9.10;101548.00;;;;4992180;28;20496;-76
2022/03/25 03:08:23;;;;;;;36.00;27.37;;;8.80;1.00;9.10;101558.00;;;;4993120;28;20466;-76
2022/03/25 03:10:52;;;;;;;35.60;28.10;;;8.80;1.00;9.10;101563.00;;;;4991958;28;20450;-77
2022/03/25 03:13:22;;;;;;;35.07;26.40;;;8.80;1.00;9.10;101560.00;;;;4988605;28;20481;-77
2022/03/25 03:15:50;;;;;;;34.73;26.87;;;8.80;1.00;9.10;101560.00;;;;4988477;28;21015;-77
2022/03/25 03:18:20;;;;;;;32.33;25.47;;;8.80;1.00;9.10;101552.00;;;;4990264;28;20458;-76
2022/03/25 03:20:48;;;;;;;32.30;26.37;;;8.80;1.00;9.10;101555.00;;;;4993675;28;21080;-77
2022/03/25 03:23:17;;;;;;;35.70;27.00;;;8.80;1.00;9.00;101568.00;;;;4993889;28;20454;-77
2022/03/25 03:25:46;;;;;;;33.63;25.30;;;8.70;1.00;9.00;101559.00;;;;4990938;28;20473;-76
2022/03/25 03:28:14;;;;;;;30.90;25.70;;;8.70;1.00;8.90;101566.00;;;;5009807;28;20459;-75
2022/03/25 03:30:44;;;;;;;35.93;26.60;;;8.60;1.00;8.90;101557.00;;;;5016216;28;20454;-76
2022/03/25 03:33:12;;;;;;;32.77;26.83;;;8.60;1.00;8.80;101556.00;;;;4999825;28;20464;-77
2022/03/25 03:35:41;;;;;;;33.77;25.90;;;8.50;1.00;8.80;101543.00;;;;4997238;28;20462;-76
2022/03/25 03:38:09;;;;;;;37.33;28.03;;;8.50;1.00;8.80;101552.00;;;;4997823;28;20438;-77
2022/03/25 03:40:38;;;;;;;38.33;27.20;;;8.50;1.00;8.80;101551.00;;;;4999161;28;20461;-76
2022/03/25 03:43:07;;;;;;;33.27;25.60;;;8.50;1.00;8.80;101539.00;;;;4994885;28;20458;-76
2022/03/25 03:45:35;;;;;;;34.70;26.87;;;8.50;1.00;8.70;101553.00;;;;4998345;28;20481;-77
2022/03/25 03:48:06;;;;;;;33.57;27.90;;;8.40;1.00;8.80;101562.00;;;;4991432;28;20891;-76
2022/03/25 03:50:33;;;;;;;37.40;27.63;;;8.40;1.00;8.70;101547.00;;;;4989943;28;20547;-76
2022/03/25 03:53:03;;;;;;;38.93;27.17;;;8.30;1.00;8.70;101563.00;;;;5001859;28;21145;-76
2022/03/25 03:55:33;;;;;;;37.90;27.83;;;8.40;1.00;8.70;101555.00;;;;4989429;28;20561;-76
2022/03/25 03:58:01;;;;;;;39.27;28.30;;;8.30;1.00;8.70;101556.00;;;;4989793;28;20453;-76
2022/03/25 04:00:29;;;;;;;31.33;25.63;;;8.30;1.00;8.60;101539.00;;;;4988420;28;20473;-77
2022/03/25 04:02:57;;;;;;;39.30;26.97;;;8.30;1.00;8.60;101558.00;;;;4998010;28;20462;-77
2022/03/25 04:05:27;;;;;;;39.37;26.97;;;8.30;1.00;8.60;101554.00;;;;5007471;28;20466;-77
2022/03/25 04:07:55;;;;;;;32.23;26.00;;;8.30;1.00;8.70;101548.00;;;;4991314;28;20480;-78
2022/03/25 04:10:24;;;;;;;38.00;28.20;;;8.30;1.00;8.70;101523.00;;;;4985199;28;20458;-77
2022/03/25 04:12:52;;;;;;;39.63;28.00;;;8.40;1.00;8.70;101541.00;;;;4985366;28;21179;-77
2022/03/25 04:15:20;;;;;;;37.07;28.80;;;8.30;1.00;8.60;101541.00;;;;4987516;28;20524;-78
2022/03/25 04:17:48;;;;;;;36.07;26.50;;;8.30;1.00;8.60;101538.00;;;;4986867;28;20831;-77
2022/03/25 04:20:18;;;;;;;35.87;25.80;;;8.30;1.00;8.60;101541.00;;;;4988950;28;20462;-77
2022/03/25 04:22:47;;;;;;;37.37;29.93;;;8.40;1.00;8.60;101537.00;;;;4985051;28;20468;-76
2022/03/25 04:25:16;;;;;;;35.17;25.67;;;8.30;1.00;8.60;101534.00;;;;4972685;28;20505;-77
2022/03/25 04:27:49;;;;;;;33.10;25.90;;;8.30;1.00;8.60;101537.00;;;;4984377;28;20478;-77
2022/03/25 04:30:20;;;;;;;36.97;25.73;;;8.30;1.00;8.70;101537.00;;;;4987444;28;20469;-77
2022/03/25 04:32:49;;;;;;;36.30;26.73;;;8.30;1.00;8.60;101555.00;;;;4988279;28;20462;-77
2022/03/25 04:35:18;;;;;;;36.90;26.93;;;8.30;1.00;8.60;101556.00;;;;4983359;28;20485;-76
2022/03/25 04:37:47;;;;;;;34.57;26.07;;;8.30;1.00;8.60;101546.00;;;;4991608;28;20497;-77
2022/03/25 04:40:18;;;;;;;37.37;26.60;;;8.30;1.00;8.50;101550.00;;;;4993066;28;20468;-76
2022/03/25 04:42:47;;;;;;;39.60;27.67;;;8.30;1.00;8.50;101565.00;;;;4990030;28;20474;-77
2022/03/25 04:45:16;;;;;;;34.10;26.10;;;8.20;1.00;8.50;101564.00;;;;4992874;28;20467;-77
2022/03/25 04:47:45;;;;;;;33.50;25.40;;;8.20;1.00;8.50;101557.00;;;;4991199;28;20482;-78
2022/03/25 04:50:14;;;;;;;33.10;25.60;;;8.10;1.00;8.60;101554.00;;;;4987658;28;20466;-77
2022/03/25 04:52:42;;;;;;;33.57;26.30;;;8.20;1.00;8.60;101557.00;;;;4987141;28;20462;-76
2022/03/25 04:55:18;;;;;;;35.47;25.93;;;8.30;1.00;8.60;101561.00;;;;4985974;28;20510;-77
2022/03/25 04:57:48;;;;;;;31.03;25.53;;;8.30;1.00;8.60;101548.00;;;;4985799;28;20462;-77
2022/03/25 05:00:17;;;;;;;40.93;26.13;;;8.30;1.00;8.60;101553.00;;;;4988245;28;20466;-77
2022/03/25 05:02:47;;;;;;;37.30;27.37;;;8.30;1.00;8.60;101552.00;;;;4989080;28;20460;-77
2022/03/25 05:05:16;;;;;;;33.60;25.77;;;8.30;1.00;8.70;101571.00;;;;4983727;28;20517;-76
2022/03/25 05:07:46;;;;;;;33.80;25.50;;;8.40;1.00;8.70;101558.00;;;;4991985;28;20485;-76
2022/03/25 05:10:16;;;;;;;33.93;26.97;;;8.40;1.00;8.60;101558.00;;;;5002217;28;20473;-78
2022/03/25 05:12:45;;;;;;;33.67;27.00;;;8.30;1.00;8.60;101565.00;;;;5002380;28;20485;-77
2022/03/25 05:15:14;;;;;;;34.10;26.80;;;8.30;1.00;8.50;101574.00;;;;4984365;28;20482;-76
2022/03/25 05:17:47;;;;;;;38.10;27.30;;;8.20;1.00;8.50;101579.00;;;;4987101;28;20480;-77
2022/03/25 05:20:17;;;;;;;39.47;28.00;;;8.20;1.00;8.50;101577.00;;;;4989521;28;20449;-75
2022/03/25 05:22:46;;;;;;;36.67;26.77;;;8.20;1.00;8.50;101588.00;;;;4987471;28;20465;-76
2022/03/25 05:25:17;;;;;;;39.43;28.37;;;8.20;1.00;8.40;101588.00;;;;4993367;28;20478;-76
2022/03/25 05:27:48;;;;;;;34.40;27.60;;;8.40;1.00;8.40;101584.00;;;;4994333;28;20477;-76
2022/03/25 05:30:20;;;;;;;34.70;26.47;;;8.20;1.00;8.40;101583.00;;;;4991793;28;20472;-76
2022/03/25 05:32:48;;;;;;;37.63;27.43;;;8.10;1.00;8.40;101578.00;;;;4991387;28;20461;-77
2022/03/25 05:35:30;;;;;;;34.60;25.77;;;8.10;1.00;8.50;101576.00;;;;4985131;28;20490;-77
2022/03/25 05:37:59;;;;;;;36.17;27.07;;;8.20;1.00;8.50;101576.00;;;;4991343;28;20469;-77
2022/03/25 05:40:29;;;;;;;35.60;26.07;;;8.30;1.00;8.60;101562.00;;;;4985790;28;20472;-75
2022/03/25 05:42:57;;;;;;;37.30;27.10;;;8.40;1.00;8.60;101591.00;;;;4989453;28;20938;-76
2022/03/25 05:45:26;;;;;;;37.80;26.83;;;8.30;1.00;8.70;101596.00;;;;4991418;28;20595;-75
2022/03/25 05:47:54;;;;;;;37.70;26.30;;;8.30;1.00;8.80;101603.00;;;;5003072;28;20865;-80
2022/03/25 05:50:22;;;;;;;37.30;28.13;;;8.40;1.00;8.80;101606.00;;;;5007596;28;20481;-77
2022/03/25 05:52:51;;;;;;;34.53;26.33;;;8.50;1.00;8.90;101596.00;;;;5010600;28;20442;-78
2022/03/25 05:55:19;;;;;;;37.10;26.77;;;8.50;1.00;8.90;101582.00;;;;5010935;28;20487;-76
2022/03/25 05:57:49;;;;;;;37.07;27.10;;;8.60;1.00;8.90;101606.00;;;;4996473;28;20562;-77
2022/03/25 06:00:17;;;;;;;35.83;25.80;;;8.60;1.00;9.10;101604.00;;;;4989617;28;20459;-77
2022/03/25 06:02:46;;;;;;;39.67;26.27;;;8.60;1.00;9.10;101618.00;;;;4985255;28;20541;-77
2022/03/25 06:05:15;;;;;;;35.90;26.50;;;8.70;1.00;9.20;101614.00;;;;4985972;28;20493;-76
2022/03/25 06:07:46;;;;;;;39.37;27.10;;;8.80;1.00;9.20;101630.00;;;;4992379;28;20483;-76
2022/03/25 06:10:15;;;;;;;44.40;25.40;;;8.80;1.00;9.30;101614.00;;;;4991533;28;20450;-76
2022/03/25 06:12:44;;;;;;;34.93;26.27;;;8.90;1.00;9.40;101606.00;;;;4982686;28;20462;-77
2022/03/25 06:15:14;;;;;;;39.60;26.60;;;9.00;1.00;9.40;101617.00;;;;4983186;28;20490;-76
2022/03/25 06:17:47;;;;;;;37.10;26.53;;;9.10;1.00;9.40;101625.00;;;;4985422;28;20558;-77
2022/03/25 06:20:19;;;;;;;34.00;25.80;;;9.10;1.00;9.60;101620.00;;;;4989178;28;20466;-76
2022/03/25 06:22:49;;;;;;;36.20;27.33;;;9.20;1.00;9.70;101593.00;;;;4990088;28;20994;-77
2022/03/25 06:25:18;;;;;;;35.70;26.83;;;9.30;1.00;9.70;101624.00;;;;4985938;28;20483;-76
2022/03/25 06:27:52;;;;;;;37.50;27.23;;;9.40;1.00;9.80;101626.00;;;;4992876;28;20496;-76
2022/03/25 06:30:24;;;;;;;37.27;25.97;;;9.50;1.00;9.80;101607.00;;;;4989905;28;20454;-77
2022/03/25 06:32:53;;;;;;;33.63;25.20;;;9.50;1.00;10.00;101618.00;;;;4996957;28;20996;-77
2022/03/25 06:35:22;;;;;;;34.40;25.63;;;9.60;1.00;10.00;101624.00;;;;5002133;28;20473;-76
2022/03/25 06:37:51;;;;;;;35.70;25.10;;;9.70;1.00;10.10;101622.00;;;;4997850;28;20511;-77
2022/03/25 06:40:21;;;;;;;35.90;25.73;;;9.80;1.00;10.10;101608.00;;;;4996793;28;20464;-77
2022/03/25 06:42:50;;;;;;;33.03;24.37;;;9.80;1.00;10.20;101608.00;;;;4993343;28;20465;-77
2022/03/25 06:45:19;;;;;;;37.60;27.53;;;10.10;1.00;10.30;101617.00;;;;4992043;28;20470;-76
2022/03/25 06:47:49;;;;;;;36.27;25.07;;;10.00;1.00;10.40;101619.00;;;;4985561;28;20481;-77
2022/03/25 06:50:19;;;;;;;31.10;24.03;;;10.00;1.00;10.50;101618.00;;;;4985198;28;20458;-77
2022/03/25 06:52:50;;;;;;;40.70;25.47;;;10.20;1.00;10.50;101622.00;;;;4980616;28;20463;-75
2022/03/25 06:55:19;;;;;;;37.60;27.07;;;10.10;1.00;10.60;101590.00;;;;4987320;28;20490;-76
2022/03/25 06:57:50;;;;;;;34.87;27.00;;;10.20;1.00;10.70;101620.00;;;;4981881;28;20537;-74
2022/03/25 07:00:20;;;;;;;34.53;25.33;;;10.60;1.00;10.90;101627.00;;;;4981835;28;20462;-74
2022/03/25 07:02:53;;;;;;;40.13;27.63;;;10.50;1.00;10.90;101624.00;;;;4987684;28;20450;-74
2022/03/25 07:05:24;;;;;;;32.73;25.37;;;10.60;1.00;11.00;101632.00;;;;4983510;28;20532;-74
2022/03/25 07:07:52;;;;;;;39.50;26.23;;;10.70;1.00;11.00;101625.00;;;;4989289;28;20486;-74
2022/03/25 07:10:23;;;;;;;37.00;27.07;;;10.70;1.00;11.10;101631.00;;;;4984913;28;20462;-75
2022/03/25 07:12:52;;;;;;;38.17;26.60;;;10.80;1.00;11.20;101634.00;;;;4985161;28;20472;-73
2022/03/25 07:15:22;;;;;;;42.37;27.50;;;10.90;1.00;11.20;101643.00;;;;4980739;28;21017;-75
2022/03/25 07:17:53;;;;;;;34.10;26.83;;;10.90;1.00;11.20;101647.00;;;;4985233;28;20921;-75
2022/03/25 07:20:25;;;;;;;35.77;26.50;;;11.10;1.00;11.30;101642.00;;;;4982417;28;20947;-75
2022/03/25 07:22:54;;;;;;;36.43;26.50;;;10.90;1.00;11.30;101649.00;;;;4983690;28;20472;-75
2022/03/25 07:25:25;;;;;;;33.77;24.40;;;11.00;1.00;11.30;101653.00;;;;4986880;28;20482;-75
2022/03/25 07:27:53;;;;;;;36.23;25.47;;;11.00;1.00;11.30;101642.00;;;;4987559;28;20478;-74
2022/03/25 07:30:22;;;;;;;36.17;25.47;;;11.10;1.00;11.50;101658.00;;;;4982427;28;20471;-75
2022/03/25 07:32:51;;;;;;;35.60;25.00;;;11.20;1.00;11.60;101663.00;;;;4984918;28;20458;-75
2022/03/25 07:35:19;;;;;;;37.00;23.90;;;11.40;1.00;11.60;101660.00;;;;4982017;28;20483;-76
2022/03/25 07:37:48;;;;;;;39.27;25.73;;;11.30;1.00;11.70;101656.00;;;;5005673;28;20469;-75
2022/03/25 07:40:17;;;;;;;35.07;26.87;;;11.50;1.00;11.80;101669.00;;;;5003031;28;20469;-75
2022/03/25 07:42:47;;;;;;;35.57;25.37;;;11.50;1.00;11.70;101652.00;;;;5006497;28;20953;-75
2022/03/25 07:45:16;;;;;;;43.40;27.37;;;11.50;1.00;11.80;101656.00;;;;5001156;28;20560;-75
2022/03/25 07:47:45;;;;;;;35.50;25.90;;;11.50;1.00;11.70;101665.00;;;;5006913;28;20481;-75
2022/03/25 07:50:18;;;;;;;33.47;26.33;;;11.40;1.00;11.80;101652.00;;;;5009308;28;20533;-75
2022/03/25 07:52:46;;;;;;;40.97;28.33;;;11.50;1.00;11.80;101673.00;;;;4996415;28;20468;-75
2022/03/25 07:55:17;;;;;;;35.53;26.50;;;11.60;1.00;11.90;101668.00;;;;4989158;28;20496;-75
2022/03/25 07:57:46;;;;;;;40.10;26.03;;;11.70;1.00;12.10;101656.00;;;;4988336;28;20614;-75
2022/03/25 08:00:16;;;;;;;37.10;29.27;;;11.80;1.00;12.20;101660.00;;;;4998131;28;20458;-74
2022/03/25 08:02:45;;;;;;;35.27;25.80;;;11.90;1.00;12.10;101651.00;;;;4994999;28;20959;-75
2022/03/25 08:05:16;;;;;;;39.80;27.23;;;11.90;1.00;12.10;101662.00;;;;4983871;28;20543;-75
2022/03/25 08:07:48;;;;;;;35.17;27.57;;;11.90;1.00;12.30;101657.00;;;;4982046;28;21498;-74
2022/03/25 08:10:18;;;;;;;40.20;30.57;;;12.00;1.00;12.30;101658.00;;;;4991669;28;20500;-75
2022/03/25 08:12:47;;;;;;;39.20;30.50;;;12.10;1.00;12.40;101668.00;;;;4988984;28;20473;-74
2022/03/25 08:15:16;;;;;;;40.43;34.40;;;12.20;1.00;12.60;101670.00;;;;4985320;28;21006;-74
2022/03/25 08:17:49;;;;;;;40.77;29.13;;;12.30;1.00;12.60;101665.00;;;;4983682;28;20455;-75
2022/03/25 08:20:29;;;;;;;39.73;27.30;;;12.40;1.00;12.70;101659.00;;;;4984599;28;21830;-73
2022/03/25 08:22:59;;;;;;;43.23;27.07;;;12.50;1.00;12.80;101659.00;;;;4985214;28;20458;-74
2022/03/25 08:28:23;;;;;;;40.37;27.77;;;12.70;1.00;12.90;101666.00;;;;4957281;28;20483;-75
2022/03/25 08:30:52;;;;;;;40.67;29.80;;;12.80;1.00;13.00;101663.00;;;;4980296;28;20462;-75
2022/03/25 08:33:22;;;;;;;38.33;28.93;;;12.80;1.00;13.00;101677.00;;;;4986098;28;21153;-75
2022/03/25 08:35:52;;;;;;;41.23;28.03;;;12.80;1.00;13.00;101664.00;;;;4990254;28;20447;-76
2022/03/25 08:38:20;;;;;;;34.50;25.90;;;12.90;1.00;12.90;101668.00;;;;4990144;28;20477;-75
2022/03/25 08:40:48;;;;;;;38.50;28.20;;;12.80;1.00;12.90;101666.00;;;;4996122;28;20462;-74
2022/03/25 08:43:36;;;;;;;36.00;27.70;;;12.50;1.00;13.00;101670.00;;;;4999636;28;20573;-76
2022/03/25 08:46:05;;;;;;;37.30;29.23;;;12.80;1.00;13.10;101684.00;;;;5014508;28;20441;-76
2022/03/25 08:48:33;;;;;;;37.30;29.17;;;12.90;1.00;13.10;101681.00;;;;4998794;28;20481;-76
2022/03/25 08:51:03;;;;;;;38.80;29.13;;;13.00;1.00;13.20;101684.00;;;;4983374;28;20467;-75
2022/03/25 08:53:31;;;;;;;34.83;29.57;;;13.00;1.00;13.20;101673.00;;;;4987998;28;20474;-75
2022/03/25 08:56:01;;;;;;;37.37;30.90;;;13.00;1.00;13.30;101689.00;;;;4987092;28;20459;-74
2022/03/25 08:58:29;;;;;;;38.60;29.87;;;13.10;1.00;13.30;101680.00;;;;4984540;28;20474;-75
2022/03/25 09:00:58;;;;;;;41.03;30.60;;;13.10;1.00;13.50;101680.00;;;;4982343;28;20550;-75
2022/03/25 09:03:27;;;;;;;37.80;28.90;;;13.40;1.00;13.60;101685.00;;;;4980306;28;20505;-76
2022/03/25 09:05:56;;;;;;;37.13;30.40;;;13.40;1.00;13.70;101678.00;;;;4980497;28;20818;-75
2022/03/25 09:08:25;;;;;;;43.90;30.67;;;13.60;1.00;13.80;101693.00;;;;4981764;28;20474;-76
2022/03/25 09:10:54;;;;;;;45.47;32.17;;;13.80;1.00;13.90;101693.00;;;;4986766;28;20468;-76
2022/03/25 09:13:22;;;;;;;45.07;32.57;;;13.80;1.00;13.90;101681.00;;;;4986168;28;20841;-76
2022/03/25 09:15:51;;;;;;;41.00;31.43;;;13.90;1.00;13.90;101681.00;;;;4981955;28;20466;-75
2022/03/25 09:18:20;;;;;;;46.90;31.20;;;13.80;1.00;14.00;101683.00;;;;4984138;28;20458;-78
2022/03/25 09:20:49;;;;;;;37.00;30.60;;;13.90;1.00;14.10;101671.00;;;;4987519;28;20492;-75
2022/03/25 09:23:18;;;;;;;41.53;31.27;;;14.00;1.00;14.20;101683.00;;;;4990756;28;20470;-75
2022/03/25 09:25:48;;;;;;;42.10;32.63;;;14.00;1.00;14.20;101684.00;;;;4997767;28;20877;-76
2022/03/25 09:28:16;;;;;;;41.67;31.70;;;14.10;1.00;14.20;101680.00;;;;4982175;28;20525;-76
2022/03/25 09:30:44;;;;;;;47.10;33.47;;;14.10;1.00;14.40;101685.00;;;;4985230;28;20524;-79
2022/03/25 09:33:13;;;;;;;41.87;32.30;;;14.20;1.00;14.40;101677.00;;;;4986305;28;20546;-79
2022/03/25 09:35:42;;;;;;;38.13;31.00;;;14.30;1.00;14.50;101691.00;;;;4988204;28;20458;-81
2022/03/25 09:38:11;;;;;;;41.00;33.20;;;14.30;1.00;14.60;101682.00;;;;4994536;28;20464;-77
2022/03/25 09:40:41;;;;;;;38.33;30.20;;;14.50;1.00;14.70;101687.00;;;;4994987;28;20458;-75
2022/03/25 09:43:11;;;;;;;42.20;34.87;;;14.70;1.00;14.70;101686.00;;;;4995653;28;20954;-78
2022/03/25 09:45:40;;;;;;;42.70;32.60;;;14.60;1.00;14.80;101689.00;;;;4999213;28;20457;-77
2022/03/25 09:48:09;;;;;;;38.30;32.90;;;14.80;1.00;14.90;101687.00;;;;4997471;28;20511;-80
2022/03/25 09:50:40;;;;;;;44.30;31.73;;;14.90;1.00;15.00;101688.00;;;;4995173;28;20670;-76
2022/03/25 09:53:31;;;;;;;38.90;32.70;;;15.00;1.00;15.10;101683.00;;;;4999360;28;20479;-78
2022/03/25 09:56:00;;;;;;;38.87;31.63;;;15.10;1.00;15.20;101692.00;;;;4993847;28;20478;-79
2022/03/25 09:58:29;;;;;;;41.13;32.03;;;15.00;1.00;15.20;101682.00;;;;5001122;28;20536;-77
2022/03/25 10:00:59;;;;;;;42.57;33.87;;;15.20;1.00;15.30;101690.00;;;;4994082;28;20461;-75
2022/03/25 10:03:36;;;;;;;44.60;33.93;;;15.30;1.00;15.40;101685.00;;;;4995334;28;20494;-74
2022/03/25 10:06:11;;;;;;;44.27;33.50;;;15.40;1.00;15.60;101688.00;;;;5004149;28;20468;-77
2022/03/25 10:08:47;;;;;;;39.60;33.80;;;15.60;1.00;15.60;101691.00;;;;5002580;28;20446;-76
2022/03/25 10:11:22;;;;;;;43.57;33.47;;;15.70;1.00;15.60;101691.00;;;;5000277;28;20480;-76
2022/03/25 10:14:14;;;;;;;45.00;38.10;;;15.70;1.00;15.80;101689.00;;;;4995076;28;20601;-77
2022/03/25 10:16:45;;;;;;;40.40;33.90;;;15.90;1.00;15.80;101677.00;;;;4994623;28;20852;-76
2022/03/25 10:19:18;;;;;;;39.37;32.00;;;15.80;1.00;15.90;101682.00;;;;5001589;28;20507;-76
2022/03/25 10:21:55;;;;;;;42.50;33.80;;;15.90;1.00;16.00;101688.00;;;;5002055;28;20446;-77
2022/03/25 10:24:38;;;;;;;49.03;36.73;;;16.00;1.00;16.10;101681.00;;;;4999641;28;20477;-76
2022/03/25 10:27:17;;;;;;;45.30;37.30;;;16.30;1.00;16.20;101676.00;;;;5007456;28;20508;-77
2022/03/25 10:29:47;;;;;;;52.30;40.30;;;16.40;1.00;16.30;101679.00;;;;5012148;28;20995;-77
2022/03/25 10:32:19;;;;;;;42.83;35.83;;;16.40;1.00;16.40;101690.00;;;;4995088;28;20465;-77
2022/03/25 10:35:04;;;;;;;44.80;35.63;;;16.50;1.00;16.40;101688.00;;;;4995776;28;20483;-75
2022/03/25 10:37:32;;;;;;;45.73;34.30;;;16.40;1.00;16.30;101696.00;;;;4996406;28;20468;-76
2022/03/25 10:40:00;;;;;;;41.40;31.30;;;16.30;1.00;16.40;101682.00;;;;5017974;28;21062;-76
2022/03/25 10:42:29;;;;;;;37.43;33.40;;;16.30;1.00;16.50;101691.00;;;;4997859;28;20466;-77
2022/03/25 10:45:01;;;;;;;47.83;34.67;;;16.50;1.00;16.60;101679.00;;;;5001932;28;20494;-80
2022/03/25 10:47:31;;;;;;;53.83;35.20;;;16.60;1.00;16.80;101678.00;;;;5004361;28;20521;-77
2022/03/25 10:50:13;;;;;;;42.83;35.83;;;16.80;1.00;16.90;101686.00;;;;5019295;28;20458;-79
2022/03/25 10:52:42;;;;;;;45.13;35.67;;;16.90;1.00;17.00;101683.00;;;;5025889;28;20562;-79
2022/03/25 10:55:23;;;;;;;39.70;33.90;;;17.10;1.00;17.10;101693.00;;;;5003857;28;20480;-78
2022/03/25 10:57:55;;;;;;;45.40;38.40;;;17.30;1.00;17.20;101683.00;;;;4997353;28;20493;-78
2022/03/25 11:00:27;;;;;;;42.30;36.30;;;17.30;1.00;17.30;101692.00;;;;5004362;28;20473;-77
2022/03/25 11:02:56;;;;;;;40.87;36.60;;;17.40;1.00;17.40;101682.00;;;;4996836;28;20498;-77